Flight Track Log - Related Links

Times and Time Zones

All times are in EST time to prevent confusion due to time zone crossing. See the N8854L flight status page for this flight to view local times or setup timezone preferences in your user account.

Time Position Orientation Groundspeed Altitude Reporting Facility
EST Latitude Longitude Course Direction KTS MPH feet Rate Location/Type
Sat 05:01:32 PM 44.5219 -108.8867 83° East 95 109 7,500  Level Salt Lake Center
Sat 05:02:33 PM 44.5256 -108.8461 83° East 99 114 8,100 488 Climbing Salt Lake Center
Sat 05:03:35 PM 44.5322 -108.8053 77° East 103 119 8,500 341 Climbing Salt Lake Center
Sat 05:04:36 PM 44.5447 -108.7589 69° East 106 122 8,800 246 Climbing Salt Lake Center
Sat 05:05:37 PM 44.5531 -108.7158 75° East 109 125 9,000 246 Climbing Salt Lake Center
Sat 05:06:38 PM 44.5553 -108.6719 86° East 111 128 9,300 344 Climbing Salt Lake Center
Sat 05:07:39 PM 44.5583 -108.6261 85° East 114 131 9,700 443 Climbing Salt Lake Center
Sat 05:08:40 PM 44.5608 -108.5800 86° East 117 135 10,200 439 Climbing Salt Lake Center
Sat 05:09:42 PM 44.5636 -108.5303 85° East 122 140 10,600 341 Climbing Salt Lake Center
Sat 05:10:43 PM 44.5769 -108.4817 69° East 127 146 10,900 246 Climbing Salt Lake Center
Sat 05:11:44 PM 44.5900 -108.4336 69° East 131 151 11,100 148 Climbing Salt Lake Center
Sat 05:12:45 PM 44.6017 -108.3861 71° East 130 150 11,200 98 Climbing Salt Lake Center
Sat 05:13:46 PM 44.6103 -108.3350 77° East 132 152 11,300 244 Climbing Salt Lake Center
Sat 05:14:48 PM 44.6214 -108.2708 76° East 137 158 11,700 244 Climbing Salt Lake Center
Sat 05:15:49 PM 44.6322 -108.2128 75° East 145 167 11,800 49 Climbing Salt Lake Center
Sat 05:16:50 PM 44.6417 -108.1531 77° East 151 174 11,800 49 Level Salt Lake Center
Sat 05:17:51 PM 44.6508 -108.0925 78° East 156 180 11,900 246 Climbing Salt Lake Center
Sat 05:18:52 PM 44.6622 -108.0350 74° East 156 180 12,300 341 Climbing Salt Lake Center
Sat 05:19:54 PM 44.6761 -107.9806 70° East 152 175 12,600 195 Climbing Salt Lake Center
Sat 05:20:55 PM 44.6886 -107.9225 73° East 154 177 12,700 148 Climbing Salt Lake Center
Sat 05:21:56 PM 44.6978 -107.8525 80° East 155 178 12,900 49 Climbing Salt Lake Center
Sat 05:22:57 PM 44.7067 -107.7936 78° East 155 178 12,800 -98 Descending Salt Lake Center
Sat 05:23:59 PM 44.7144 -107.7328 80° East 157 181 12,700 -244 Descending Salt Lake Center
Sat 05:25:00 PM 44.7242 -107.6722 77° East 159 183 12,300 -246 Descending Salt Lake Center
Sat 05:26:01 PM 44.7306 -107.6106 82° East 160 184 12,200 -98 Descending Salt Lake Center
Sat 05:27:03 PM 44.7364 -107.5464 83° East 162 186 12,100  Descending Salt Lake Center
Sat 05:28:04 PM 44.7456 -107.4781 79° East 170 196 12,200 148 Climbing Salt Lake Center
Sat 05:29:05 PM 44.7550 -107.4122 79° East 173 199 12,400 -244 Climbing Salt Lake Center
Sat 05:30:07 PM 44.7661 -107.3314 79° East 174 200 11,700 -677 Descending Salt Lake Center
Sat 05:32:00 PM 44.7058 -107.2377 132° Southeast  Level FlightAware Approximate
Sat 05:39:00 PM 44.4808 -106.8910 132° Southeast  Level FlightAware Approximate
Sat 05:40:00 PM 44.4486 -106.8417 132° Southeast  Level FlightAware Approximate
Sat 05:41:00 PM 44.4164 -106.7924 132° Southeast  Level FlightAware Approximate
Sat 05:42:00 PM 44.3841 -106.7432 133° Southeast  Level FlightAware Approximate
Sat 05:43:00 PM 44.3811 -106.7218 132° Southeast  Level Estimated
Sat 05:44:00 PM 44.3811 -106.7218 132° Southeast  Level Estimated
Sat 05:45:00 PM 44.3811 -106.7218 132° Southeast  Level Estimated
Sat 05:46:00 PM 44.3811 -106.7218 132° Southeast  Level Estimated
Sat 05:47:00 PM 44.3811 -106.7218 132° Southeast  Level Estimated
Sat 05:48:00 PM 44.3811 -106.7218 132° Southeast  Level Estimated
Sat 05:49:00 PM 44.3811 -106.7218 132° Southeast  Level Estimated
Sat 05:50:00 PM 44.3811 -106.7218 132° Southeast  Level Estimated
Sat 05:51:00 PM 44.3811 -106.7218 132° Southeast  Level Estimated
Sat 05:52:00 PM 44.3811 -106.7218 132° Southeast  Level Estimated
Sat 05:53:00 PM 44.3811 -106.7218 132° Southeast  Level Estimated
Sat 05:54:00 PM 44.3811 -106.7218 132° Southeast  Level Estimated
Sat 05:55:00 PM 44.3811 -106.7218 132° Southeast  Level Estimated
Sat 05:56:00 PM 44.3811 -106.7218 132° Southeast  Level Estimated
Sat 05:57:00 PM 44.3811 -106.7218 132° Southeast  Level Estimated
Sat 05:58:00 PM 44.3811 -106.7218 132° Southeast  Level Estimated
Sat 05:59:00 PM 44.3811 -106.7218 132° Southeast  Level Estimated
Sat 06:00:00 PM 44.3811 -106.7218 132° Southeast  Level Estimated

Login

Don't have an account? Register now (free) for customized features, flight alerts, and more!